Terminal Aerodrome Forecast
Issued by NWS Corpus Christi, TX

Home | Current Version | Previous Version | Text Only | Print | Product List | Glossary On
Versions: 1 2 3 4 5 6 7 8 9 10 11 12 13 14 15 16 17 18
000
FTUS44 KCRP 291700
TAFCRP
TAF
KCRP 291731Z 2918/3018 17027G35KT P6SM SKC
     FM300000 16020G25KT P6SM SKC
     FM300300 16016KT P6SM FEW018
     FM301100 17007KT 6SM BR BKN011
     FM301500 17015KT P6SM SCT020=

USA.gov is the U.S. government's official web portal to all federal, state and local government web resources and services.